Flight Track Log - Related Links

Times and Time Zones

All times are in EDT time to prevent confusion due to time zone crossing. See the UPS1337 flight status page for this flight to view local times or setup timezone preferences in your user account.

Time Position Orientation Groundspeed Altitude Reporting Facility
EDT Latitude Longitude Course Direction KTS MPH feet Rate Location/Type
Tue 09:41:58 PM 27.9167 -82.7000 16° North 174 200 800  Level Tampa TRACON
Tue 09:42:40 PM 27.9667 -82.6833 16° North 203 234 2,500 1,688 Climbing Tampa TRACON
Tue 09:43:34 PM 28.0167 -82.6667 16° North 221 254 3,500 1,263 Climbing Tampa TRACON
Tue 09:44:34 PM 28.0833 -82.6500 12° North 278 320 4,900 2,429 Climbing Tampa TRACON
Tue 09:46:59 PM 28.2667 -82.6711 354° North 288 331 11,800 2,927 Climbing Jacksonville Center
Tue 09:47:59 PM 28.3647 -82.7203 336° Northwest 337 388 14,900 2,924 Climbing Jacksonville Center
Tue 09:48:58 PM 28.4650 -82.7744 335° Northwest 371 427 17,600 2,500 Climbing Jacksonville Center
Tue 09:49:59 PM 28.5694 -82.8264 336° Northwest 397 457 19,900 2,400 Climbing Jacksonville Center
Tue 09:50:58 PM 28.6800 -82.8783 338° Northwest 411 473 22,400 2,521 Climbing Jacksonville Center
Tue 09:51:58 PM 28.7886 -82.9353 335° Northwest 423 487 24,900 2,529 Climbing Jacksonville Center
Tue 09:52:59 PM 28.8969 -82.9897 336° Northwest 423 487 27,500 2,331 Climbing Jacksonville Center
Tue 09:53:59 PM 29.0056 -83.0397 338° Northwest 418 481 29,600 2,100 Climbing Jacksonville Center
Tue 09:54:59 PM 29.1119 -83.0897 338° Northwest 418 481 31,700 1,210 Climbing Jacksonville Center
Tue 09:55:58 PM 29.2225 -83.1281 343° North 413 475 32,000 150 Climbing Jacksonville Center
Tue 09:56:59 PM 29.3350 -83.1617 345° North 413 475 32,000 -50 Level Jacksonville Center
Tue 09:57:59 PM 29.4478 -83.1931 346° North 413 475 31,900 -50 Descending Jacksonville Center
Tue 09:58:59 PM 29.5519 -83.2244 345° North 422 486 31,900 50 Level Jacksonville Center
Tue 09:59:58 PM 29.6711 -83.2583 346° North 417 480 32,000 50 Climbing Jacksonville Center
Tue 10:00:59 PM 29.7647 -83.2850 346° North 407 468 32,000  Level Jacksonville Center
Tue 10:01:59 PM 29.8878 -83.3189 347° North 413 475 32,000  Level Jacksonville Center
Tue 10:02:59 PM 30.0006 -83.3506 346° North 413 475 32,000 700 Level Jacksonville Center
Tue 10:03:59 PM 30.1172 -83.3850 346° North 413 475 33,400 1,000 Climbing Jacksonville Center
Tue 10:04:59 PM 30.2300 -83.4167 346° North 418 481 34,000 300 Climbing Jacksonville Center
Tue 10:05:59 PM 30.3467 -83.4486 347° North 418 481 34,000 -50 Level Jacksonville Center
Tue 10:06:59 PM 30.4594 -83.4831 345° North 418 481 33,900  Descending Jacksonville Center
Tue 10:07:59 PM 30.5739 -83.5150 346° North 412 474 34,000 50 Climbing Jacksonville Center
Tue 10:08:58 PM 30.6867 -83.5497 345° North 412 474 34,000  Level Jacksonville Center
Tue 10:09:59 PM 30.7992 -83.5819 346° North 412 474 34,000  Level Jacksonville Center
Tue 10:10:59 PM 30.9139 -83.6142 346° North 412 474 34,000  Level Jacksonville Center
Tue 10:11:59 PM 31.0242 -83.6467 346° North 412 474 34,000  Level Jacksonville Center
Tue 10:12:58 PM 31.1369 -83.6814 345° North 412 474 34,000  Level Jacksonville Center
Tue 10:15:25 PM 31.4144 -83.7639 346° North 409 471 34,000  Level Atlanta Center
Tue 10:16:25 PM 31.5272 -83.8003 345° North 409 471 34,000  Level Atlanta Center
Tue 10:17:25 PM 31.6547 -83.8339 347° North 414 476 34,000  Level Atlanta Center
Tue 10:18:25 PM 31.7694 -83.8678 346° North 414 476 34,000  Level Atlanta Center
Tue 10:19:25 PM 31.8864 -83.9044 345° North 421 484 34,000  Level Atlanta Center
Tue 10:20:25 PM 31.9992 -83.9383 346° North 421 484 34,000  Level Atlanta Center
Tue 10:21:25 PM 32.1139 -83.9728 346° North 416 479 34,000  Level Atlanta Center
Tue 10:22:25 PM 32.2267 -84.0069 346° North 416 479 34,000  Level Atlanta Center
Tue 10:23:25 PM 32.3372 -84.0389 346° North 411 473 34,000  Level Atlanta Center
Tue 10:24:25 PM 32.4500 -84.0758 345° North 411 473 34,000  Level Atlanta Center
Tue 10:25:25 PM 32.5606 -84.1078 346° North 411 473 34,000  Level Atlanta Center
Tue 10:26:25 PM 32.6733 -84.1450 344° North 411 473 34,000  Level Atlanta Center
Tue 10:27:25 PM 32.7839 -84.1772 346° North 411 473 34,000  Level Atlanta Center
Tue 10:28:25 PM 32.8944 -84.2169 343° North 416 479 34,000  Level Atlanta Center
Tue 10:29:25 PM 33.0050 -84.2494 346° North 416 479 34,000  Level Atlanta Center
Tue 10:30:25 PM 33.1178 -84.2844 345° North 408 470 34,000  Level Atlanta Center
Tue 10:31:25 PM 33.2283 -84.3169 346° North 413 475 34,000  Level Atlanta Center
Tue 10:32:25 PM 33.3408 -84.3522 345° North 413 475 34,000  Level Atlanta Center
Tue 10:37:11 PM 33.9250 -84.5075 349° North 410 472 34,000  Level FlightAware ADS-B (KDZJ)
Tue 10:37:48 PM 33.9940 -84.5243 349° North 410 472 34,000  Level FlightAware ADS-B (KDZJ)
Tue 10:38:39 PM 34.0896 -84.5476 349° North 410 472 34,000  Level FlightAware ADS-B (KDZJ)
Tue 10:39:18 PM 34.1632 -84.5655 349° North 410 472 34,000  Level FlightAware ADS-B (KDZJ)
Tue 10:39:59 PM 34.2389 -84.5842 348° North 409 471 34,000  Level FlightAware ADS-B (KDZJ)
Tue 10:40:39 PM 34.3116 -84.6025 348° North 398 458 34,000  Level FlightAware ADS-B (KDZJ)
Tue 10:41:18 PM 34.3837 -84.6208 348° North 397 457 34,000  Level FlightAware ADS-B (KDZJ)
Tue 10:41:59 PM 34.4585 -84.6396 348° North 397 457 34,000  Level FlightAware ADS-B (KDZJ)
Tue 10:42:39 PM 34.5318 -84.6582 348° North 397 457 34,000  Level FlightAware ADS-B (KDZJ)
Tue 10:43:19 PM 34.6051 -84.6767 348° North 398 458 34,000  Level FlightAware ADS-B (KDZJ)
Tue 10:43:59 PM 34.6763 -84.6948 348° North 392 451 34,000  Level FlightAware ADS-B (KDZJ)
Tue 10:44:39 PM 34.7478 -84.7130 348° North 383 441 34,000  Level FlightAware ADS-B (KDZJ)
Tue 10:45:19 PM 34.8181 -84.7308 348° North 382 440 34,000  Level FlightAware ADS-B (KDZJ)
Tue 10:45:59 PM 34.8892 -84.7489 348° North 381 438 34,000  Level FlightAware ADS-B (KDZJ)
Tue 10:46:39 PM 34.9591 -84.7669 348° North 383 441 34,000  Level FlightAware ADS-B (KDZJ)
Tue 10:47:19 PM 35.0291 -84.7849 348° North 382 440 34,000  Level FlightAware ADS-B (KDZJ)
Tue 10:47:57 PM 35.0978 -84.8026 348° North 383 441 34,000  Level FlightAware ADS-B (KDZJ)
Tue 10:49:25 PM 35.1878 -84.8292 348° North 388 447 34,000  Level Atlanta Center
Tue 10:50:25 PM 35.2983 -84.8556 349° North 393 452 34,000  Level Atlanta Center
Tue 10:51:25 PM 35.4086 -84.8847 348° North 393 452 34,000  Level Atlanta Center
Tue 10:52:25 PM 35.5150 -84.9114 348° North 393 452 34,000  Level Atlanta Center
Tue 10:54:15 PM 35.7214 -84.9636 348° North 395 455 34,000  Level Indianapolis Center
Tue 10:55:15 PM 35.8294 -84.9914 348° North 395 455 34,000 -488 Level Indianapolis Center
Tue 10:56:18 PM 35.9414 -85.0164 350° North 394 453 33,000 -1,742 Descending Indianapolis Center
Tue 10:57:19 PM 36.0392 -85.0389 349° North 390 449 30,400 -1,463 Descending Indianapolis Center
Tue 10:58:21 PM 36.1478 -85.0650 349° North 408 470 30,000 -195 Descending Indianapolis Center
Tue 10:59:22 PM 36.2614 -85.1056 344° North 422 486 30,000 -246 Level Indianapolis Center
Tue 11:00:23 PM 36.3736 -85.1519 342° North 424 488 29,500 -1,785 Descending Indianapolis Center
Tue 11:01:23 PM 36.4833 -85.1964 342° North 414 476 26,400 -2,525 Descending Indianapolis Center
Tue 11:06:48 PM 37.0461 -85.4291 342° North 378 435 13,300 -2,190 Descending FlightAware ADS-B (KIXA)
Tue 11:07:52 PM 37.1517 -85.4731 342° North 379 436 12,200 -1,245 Descending FlightAware ADS-B (KIXA)
Tue 11:08:34 PM 37.2195 -85.5009 342° North 350 403 11,100 -1,247 Descending FlightAware ADS-B (KIXA)
Tue 11:09:09 PM 37.2724 -85.5229 342° North 336 387 10,600 -907 Descending FlightAware ADS-B
Tue 11:10:00 PM 37.3399 -85.5516 341° North 293 337 9,800 -1,261 Descending FlightAware ADS-B (KIXA)
Tue 11:11:08 PM 37.4258 -85.5882 342° North 285 328 8,100 -1,065 Descending FlightAware ADS-B (KIXA)
Tue 11:11:47 PM 37.4734 -85.6089 341° North 293 337 7,900 -171 Descending FlightAware ADS-B (KIXA)
Tue 11:12:18 PM 37.5118 -85.6252 341° North 296 341 7,900  Level FlightAware ADS-B (KIXA)
Tue 11:12:38 PM 37.5412 -85.6377 342° North 296 341 7,900  Level FlightAware ADS-B (KIXA)
Tue 11:12:53 PM 37.5590 -85.6451 341° North 299 344 7,900  Level FlightAware ADS-B (KIXA)
Tue 11:13:09 PM 37.5814 -85.6545 341° North 299 344 7,900  Level FlightAware ADS-B (KIXA)
Tue 11:13:24 PM 37.6011 -85.6628 342° North 300 345 7,900  Level FlightAware ADS-B (KIXA)
Tue 11:13:54 PM 37.6407 -85.6738 North 309 356 7,900  Level FlightAware ADS-B (KIXA)
Tue 11:14:21 PM 37.6804 -85.6675 North 310 357 7,900 -267 Level FlightAware ADS-B
Tue 11:14:39 PM 37.7059 -85.6661 North 305 351 7,700 -1,091 Descending FlightAware ADS-B (KIXA)
Tue 11:14:54 PM 37.7270 -85.6648 North 306 352 7,300 -1,429 Descending FlightAware ADS-B (KIXA)
Tue 11:15:21 PM 37.7637 -85.6626 North 301 346 6,700 -1,256 Descending FlightAware ADS-B
Tue 11:15:37 PM 37.7815 -85.6617 North 289 333 6,400 -700 Descending FlightAware ADS-B (KIXA)
Tue 11:16:21 PM 37.8420 -85.6591 North 256 295 6,000 -600 Descending FlightAware ADS-B
Tue 11:17:07 PM 37.8880 -85.6575 North 222 255 5,500 -700 Descending FlightAware ADS-B (KIXA)
Tue 11:17:21 PM 37.9066 -85.6570 357° North 215 247 5,300 -923 Descending FlightAware ADS-B
Tue 11:17:33 PM 37.9185 -85.6601 344° North 209 241 5,100 -900 Descending FlightAware ADS-B (KIXA)
Tue 11:18:21 PM 37.9627 -85.6747 346° North 196 226 4,400 -953 Descending FlightAware ADS-B
Tue 11:19:20 PM 38.0085 -85.6897 346° North 166 191 3,400 -908 Descending FlightAware ADS-B
Tue 11:20:20 PM 38.0497 -85.7035 343° North 151 174 2,600 -857 Descending FlightAware ADS-B
Tue 11:21:19 PM 38.0852 -85.7162 347° North 124 143 1,700 -814 Descending FlightAware ADS-B
Tue 11:22:18 PM 38.1089 -85.7235 347° North 122 140 1,000 -712 Descending FlightAware ADS-B
Tue 11:29:00 PM 38.1667 -85.7333 293° West  Level FlightAware Approximate
Tue 11:30:00 PM 38.1741 -85.7365 293° West  Level Estimated
Tue 11:31:00 PM 38.1741 -85.7365 293° West  Level Estimated

Login

Don't have an account? Register now (free) for customized features, flight alerts, and more!